Airfield :
LOGIN :

Register | Disclaimer

   EN    FR    IT 

 










Legend :    VFR   Marginal VFR   IFR   Intensive IFR   Very Intensive IFR
Visi :
Ceiling :
>= 8 km
>= 3000ft
5 to 8 km
1000 to 3000 ft
1500m to 5 km
500 to 1000 ft
800 to 1500m
200 to 500 ft
< 800m
< 200 ft
Symbols :   Thunderstorms  Fog  Heavy snow  Heavy precipitations  Wind > 20 kt
SIGMETs :     Misc.  Thunderstorms  Icing  Turbulence  Mountain Waves  Volcanic Ashes






- Airport Elevation : 65 ft
- IATA code : PMO


LICJ - Palermo Punta Raisi

CURRENT METAR :
  • 211320Z 02006KT 9999 FEW030 17/09 Q1012

EXPIRED METARs :
  • 211250Z 36007KT 9999 FEW030 16/08 Q1012
  • 211220Z 01006KT 9999 FEW030 17/09 Q1012
  • 211150Z 35008KT 9999 FEW030 17/08 Q1012
  • 211120Z 34009KT 9999 FEW030 17/09 Q1012
  • 211050Z 35008KT 9999 FEW030 16/08 Q1013
  • 211020Z 34007KT 9999 FEW030 17/09 Q1013
  • 210950Z 34007KT CAVOK 16/08 Q1013
  • 210920Z 34006KT 9999 FEW030 16/09 Q1013
  • 210850Z 35006KT 9999 SCT030 16/09 Q1013

TAF TAF LICJ
Valid from the 21 at 12:00 until the 22 at 12:00 UTC


211100Z 2112/2212 34010KT CAVOK
BECMG 2118/2120 VRB05KT
BECMG 2208/2210 34010KT



MET'MAP, your aeronautical weather chart ! - Copyright ORBIFLY December 2007 - Disclaimer

ORBIFLY MET'MAP TEAM :

Programming & Development : Alexandra Zaïnal
Original concept : Baudouin d'Aumeries
Technical & hardware support : Manuel Goepfert
Assistance : Marc-Olivier Méhu




SOURCES & CREDITS :

   NOAA